Time;durP1;ratioP1;P1;durP2;ratioP2;P2;SDS_P1;SDS_P2;PMS_P1;PMS_P2;Temp;Humidity;BMP_temperature;BMP_pressure;BME280_temperature;BME280_humidity;BME280_pressure;Samples;Min_cycle;Max_cycle;Signal;HPM_P1;HPM_P2
2021/03/02 00:00:14;;;;;;;6.95;4.75;;;;;;;;;;5033299;27;106143;-54
2021/03/02 00:02:41;;;;;;;6.28;4.32;;;;;;;;;;5026363;27;105968;-56
2021/03/02 00:05:08;;;;;;;6.57;4.50;;;;;;;;;;5008734;27;106133;-57
2021/03/02 00:07:33;;;;;;;7.18;4.55;;;;;;;;;;5025056;27;105350;-57
2021/03/02 00:09:59;;;;;;;6.25;4.40;;;;;;;;;;5024068;27;105987;-57
2021/03/02 00:12:27;;;;;;;5.55;4.20;;;;;;;;;;5025907;27;105010;-56
2021/03/02 00:14:53;;;;;;;6.50;4.07;;;;;;;;;;5026397;27;105016;-57
2021/03/02 00:17:31;;;;;;;6.90;4.20;;;;;;;;;;5026509;27;105298;-56
2021/03/02 00:20:20;;;;;;;6.43;4.05;;;;;;;;;;5035656;27;105656;-55
2021/03/02 00:22:49;;;;;;;5.95;3.83;;;;;;;;;;5029940;27;105000;-56
2021/03/02 00:25:14;;;;;;;5.75;4.10;;;;;;;;;;5024795;27;105424;-56
2021/03/02 00:27:40;;;;;;;6.05;4.25;;;;;;;;;;5008480;27;105772;-56
2021/03/02 00:30:06;;;;;;;6.72;4.03;;;;;;;;;;5026707;27;105060;-56
2021/03/02 00:32:32;;;;;;;6.93;4.13;;;;;;;;;;5027243;27;106711;-57
2021/03/02 00:34:58;;;;;;;5.80;3.83;;;;;;;;;;5029116;27;106991;-56
2021/03/02 00:37:23;;;;;;;6.88;4.22;;;;;;;;;;5032554;27;105433;-57
2021/03/02 00:39:49;;;;;;;6.88;4.68;;;;;;;;;;5032756;27;105419;-56
2021/03/02 00:42:14;;;;;;;6.22;4.10;;;;;;;;;;5036353;27;105261;-56
2021/03/02 00:44:40;;;;;;;5.45;4.07;;;;;;;;;;5033158;27;105027;-55
2021/03/02 00:47:05;;;;;;;6.40;4.13;;;;;;;;;;5032208;27;106267;-56
2021/03/02 00:49:31;;;;;;;6.57;4.38;;;;;;;;;;5002758;27;105159;-56
2021/03/02 00:51:56;;;;;;;6.20;4.18;;;;;;;;;;5032516;27;106323;-56
2021/03/02 00:54:22;;;;;;;7.30;4.40;;;;;;;;;;5032618;27;107636;-56
2021/03/02 00:56:48;;;;;;;6.50;4.20;;;;;;;;;;5036882;27;105650;-57
2021/03/02 00:59:16;;;;;;;5.35;4.00;;;;;;;;;;5028194;27;105427;-56
2021/03/02 01:01:42;;;;;;;7.18;4.30;;;;;;;;;;5015975;27;108124;-56
2021/03/02 01:04:08;;;;;;;6.60;4.20;;;;;;;;;;5039449;27;105334;-55
2021/03/02 01:06:34;;;;;;;6.95;4.47;;;;;;;;;;5032401;27;105028;-56
2021/03/02 01:08:59;;;;;;;5.85;4.38;;;;;;;;;;5033192;27;105084;-56
2021/03/02 01:11:25;;;;;;;5.70;4.10;;;;;;;;;;5039826;27;107865;-56
2021/03/02 01:13:51;;;;;;;6.22;3.90;;;;;;;;;;5022675;27;107333;-56
2021/03/02 01:16:17;;;;;;;6.03;4.32;;;;;;;;;;5030957;27;105505;-57
2021/03/02 01:18:43;;;;;;;6.07;4.20;;;;;;;;;;5025396;27;107220;-55
2021/03/02 01:21:08;;;;;;;6.35;3.92;;;;;;;;;;5033273;27;104979;-53
2021/03/02 01:23:34;;;;;;;6.07;4.05;;;;;;;;;;5034580;27;105630;-57
2021/03/02 01:25:59;;;;;;;6.50;4.15;;;;;;;;;;5031528;27;105883;-57
2021/03/02 01:28:25;;;;;;;6.00;4.10;;;;;;;;;;5027654;27;105060;-56
2021/03/02 01:30:50;;;;;;;5.63;4.28;;;;;;;;;;5032132;27;105179;-57
2021/03/02 01:33:16;;;;;;;6.60;4.47;;;;;;;;;;5032144;27;106847;-57
2021/03/02 01:35:41;;;;;;;6.40;4.43;;;;;;;;;;5031616;27;105335;-56
2021/03/02 01:38:06;;;;;;;6.13;4.20;;;;;;;;;;5031659;27;105838;-55
2021/03/02 01:40:32;;;;;;;6.93;4.35;;;;;;;;;;5032523;27;105030;-57
2021/03/02 01:42:57;;;;;;;6.38;4.20;;;;;;;;;;5033145;27;105043;-56
2021/03/02 01:45:23;;;;;;;6.13;4.00;;;;;;;;;;5031164;27;105033;-56
2021/03/02 01:47:50;;;;;;;6.80;4.57;;;;;;;;;;5030615;27;105979;-56
2021/03/02 01:50:15;;;;;;;6.40;4.60;;;;;;;;;;5028789;27;106290;-58
2021/03/02 01:52:40;;;;;;;5.95;4.28;;;;;;;;;;5025760;27;105161;-58
2021/03/02 01:55:06;;;;;;;6.85;4.40;;;;;;;;;;5028296;27;105025;-56
2021/03/02 01:57:32;;;;;;;6.28;4.30;;;;;;;;;;5025489;27;105880;-55
2021/03/02 02:00:01;;;;;;;5.68;3.80;;;;;;;;;;4993917;27;108182;-55
2021/03/02 02:02:58;;;;;;;7.18;4.43;;;;;;;;;;5028820;27;105343;-55
2021/03/02 02:05:23;;;;;;;7.13;4.40;;;;;;;;;;5021467;27;105013;-55
2021/03/02 02:08:01;;;;;;;6.10;4.43;;;;;;;;;;5023478;27;105586;-55
2021/03/02 02:10:31;;;;;;;6.57;4.50;;;;;;;;;;4996883;27;106059;-55
2021/03/02 02:13:02;;;;;;;7.03;4.53;;;;;;;;;;5011326;27;105416;-56
2021/03/02 02:15:27;;;;;;;6.83;4.70;;;;;;;;;;5036970;27;105076;-55
2021/03/02 02:17:55;;;;;;;7.85;5.07;;;;;;;;;;5019764;27;105287;-55
2021/03/02 02:20:46;;;;;;;7.55;5.20;;;;;;;;;;5026657;27;105152;-54
2021/03/02 02:23:28;;;;;;;7.03;4.55;;;;;;;;;;5028740;27;104965;-56
2021/03/02 02:26:21;;;;;;;8.20;5.28;;;;;;;;;;5030853;27;106410;-56
2021/03/02 02:28:47;;;;;;;8.02;5.22;;;;;;;;;;5028615;27;105061;-53
2021/03/02 02:31:13;;;;;;;6.72;4.57;;;;;;;;;;5031094;27;105021;-53
2021/03/02 02:33:40;;;;;;;6.72;4.65;;;;;;;;;;5010692;27;105422;-53
2021/03/02 02:36:07;;;;;;;7.07;5.05;;;;;;;;;;5010160;27;105276;-54
2021/03/02 02:38:32;;;;;;;6.95;5.07;;;;;;;;;;5009833;27;105714;-54
2021/03/02 02:40:58;;;;;;;7.82;5.28;;;;;;;;;;5010948;27;105744;-54
2021/03/02 02:43:23;;;;;;;8.18;5.35;;;;;;;;;;5009257;27;105461;-55
2021/03/02 02:45:49;;;;;;;7.75;4.95;;;;;;;;;;5009867;27;105230;-54
2021/03/02 02:48:14;;;;;;;6.75;4.80;;;;;;;;;;5027838;27;105556;-56
2021/03/02 02:50:40;;;;;;;8.10;5.43;;;;;;;;;;5024764;27;105529;-54
2021/03/02 02:53:05;;;;;;;8.10;5.32;;;;;;;;;;5029006;27;108188;-55
2021/03/02 02:55:51;;;;;;;7.45;5.07;;;;;;;;;;5026712;27;105666;-56
2021/03/02 02:58:18;;;;;;;7.05;4.93;;;;;;;;;;5010565;27;105075;-54
2021/03/02 03:00:44;;;;;;;7.57;5.07;;;;;;;;;;5022866;27;105902;-54
2021/03/02 03:03:12;;;;;;;7.68;5.03;;;;;;;;;;5025436;27;105095;-55
2021/03/02 03:05:39;;;;;;;7.72;5.15;;;;;;;;;;5027374;27;105878;-53
2021/03/02 03:08:14;;;;;;;6.70;4.80;;;;;;;;;;5025869;27;106226;-54
2021/03/02 03:10:39;;;;;;;6.47;4.50;;;;;;;;;;5009483;27;105117;-54
2021/03/02 03:13:06;;;;;;;6.60;4.53;;;;;;;;;;5009770;27;105049;-54
2021/03/02 03:15:32;;;;;;;6.50;4.50;;;;;;;;;;5012358;27;105460;-53
2021/03/02 03:17:58;;;;;;;7.55;4.93;;;;;;;;;;5009373;27;106021;-55
2021/03/02 03:20:25;;;;;;;6.60;4.32;;;;;;;;;;5026282;27;104999;-54
2021/03/02 03:22:51;;;;;;;7.63;4.80;;;;;;;;;;5020133;27;105242;-54
2021/03/02 03:25:16;;;;;;;7.60;5.00;;;;;;;;;;5010103;27;105133;-54
2021/03/02 03:27:45;;;;;;;7.53;4.85;;;;;;;;;;5025099;27;113203;-55
2021/03/02 03:30:11;;;;;;;7.30;4.97;;;;;;;;;;5025731;27;105424;-55
2021/03/02 03:32:37;;;;;;;8.45;5.15;;;;;;;;;;5027042;27;105610;-55
2021/03/02 03:35:02;;;;;;;7.75;5.00;;;;;;;;;;5025264;27;105567;-55
2021/03/02 03:37:28;;;;;;;7.75;4.90;;;;;;;;;;5012908;27;105078;-54
2021/03/02 03:39:54;;;;;;;8.05;5.05;;;;;;;;;;5024496;27;105188;-55
2021/03/02 03:42:19;;;;;;;6.35;4.28;;;;;;;;;;5008469;27;105398;-54
2021/03/02 03:44:45;;;;;;;8.13;5.38;;;;;;;;;;5025810;27;114827;-55
2021/03/02 03:47:10;;;;;;;6.93;4.78;;;;;;;;;;5025873;27;105757;-55
2021/03/02 03:49:36;;;;;;;7.03;4.55;;;;;;;;;;5027686;27;106465;-56
2021/03/02 03:52:01;;;;;;;7.82;5.25;;;;;;;;;;5027541;27;118091;-55
2021/03/02 03:54:27;;;;;;;6.85;4.72;;;;;;;;;;5022823;27;105600;-56
2021/03/02 03:56:53;;;;;;;7.90;5.15;;;;;;;;;;5013639;27;105415;-54
2021/03/02 03:59:20;;;;;;;7.63;4.90;;;;;;;;;;5028506;27;105840;-55
2021/03/02 04:01:45;;;;;;;7.50;5.07;;;;;;;;;;5026043;27;105025;-56
2021/03/02 04:04:11;;;;;;;7.97;5.32;;;;;;;;;;5024683;27;108920;-55
2021/03/02 04:06:36;;;;;;;7.28;4.90;;;;;;;;;;5013478;27;105926;-57
2021/03/02 04:09:02;;;;;;;7.07;4.95;;;;;;;;;;5007789;27;105170;-55
2021/03/02 04:11:27;;;;;;;7.18;4.82;;;;;;;;;;5007562;27;106535;-57
2021/03/02 04:13:54;;;;;;;7.60;4.97;;;;;;;;;;5027443;27;110434;-56
2021/03/02 04:16:20;;;;;;;7.22;4.80;;;;;;;;;;5027295;27;105191;-55
2021/03/02 04:18:45;;;;;;;7.43;4.85;;;;;;;;;;4995595;27;118332;-54
2021/03/02 04:21:10;;;;;;;7.45;5.13;;;;;;;;;;5037213;27;108874;-55
2021/03/02 04:23:36;;;;;;;7.20;4.90;;;;;;;;;;5007982;27;109208;-55
2021/03/02 04:26:01;;;;;;;8.43;5.60;;;;;;;;;;5026122;27;105316;-53
2021/03/02 04:28:27;;;;;;;6.35;4.28;;;;;;;;;;5027312;27;105299;-56
2021/03/02 04:30:52;;;;;;;7.80;4.80;;;;;;;;;;5026371;27;107978;-54
2021/03/02 04:33:18;;;;;;;6.97;4.90;;;;;;;;;;5027221;27;105345;-56
2021/03/02 04:35:43;;;;;;;8.65;5.65;;;;;;;;;;5025933;27;105114;-55
2021/03/02 04:38:09;;;;;;;8.43;5.43;;;;;;;;;;5027213;27;105787;-56
2021/03/02 04:40:34;;;;;;;8.13;5.10;;;;;;;;;;5033479;27;108503;-56
2021/03/02 04:43:00;;;;;;;7.50;4.97;;;;;;;;;;5027143;27;105074;-56
2021/03/02 04:45:25;;;;;;;6.95;4.93;;;;;;;;;;5024989;27;105975;-56
2021/03/02 04:47:51;;;;;;;7.85;5.25;;;;;;;;;;5027175;27;105585;-55
2021/03/02 04:50:16;;;;;;;7.97;5.15;;;;;;;;;;5026749;27;105845;-55
2021/03/02 04:52:42;;;;;;;7.82;5.10;;;;;;;;;;5025628;27;104985;-55
2021/03/02 04:55:08;;;;;;;6.97;4.70;;;;;;;;;;5021646;27;105230;-56
2021/03/02 04:57:34;;;;;;;8.20;4.88;;;;;;;;;;5025714;27;104926;-56
2021/03/02 04:59:59;;;;;;;8.00;5.15;;;;;;;;;;5025125;27;107942;-54
2021/03/02 05:02:25;;;;;;;7.47;4.70;;;;;;;;;;5028175;27;105060;-54
2021/03/02 05:04:50;;;;;;;7.32;4.60;;;;;;;;;;5025472;27;111914;-55
2021/03/02 05:07:16;;;;;;;9.52;5.47;;;;;;;;;;5025611;27;105496;-55
2021/03/02 05:09:41;;;;;;;8.57;5.60;;;;;;;;;;5024704;27;105000;-55
2021/03/02 05:12:07;;;;;;;7.50;4.82;;;;;;;;;;5024907;27;105666;-61
2021/03/02 05:14:32;;;;;;;8.13;5.32;;;;;;;;;;5011910;27;105705;-57
2021/03/02 05:16:58;;;;;;;8.38;5.13;;;;;;;;;;5029688;27;105761;-56
2021/03/02 05:19:23;;;;;;;8.13;5.13;;;;;;;;;;5024883;27;105034;-55
2021/03/02 05:21:48;;;;;;;7.45;4.88;;;;;;;;;;5008371;27;105952;-54
2021/03/02 05:24:14;;;;;;;7.47;4.65;;;;;;;;;;5032555;27;105665;-55
2021/03/02 05:26:39;;;;;;;6.93;4.90;;;;;;;;;;5028580;27;105517;-54
2021/03/02 05:29:05;;;;;;;7.07;4.82;;;;;;;;;;5029853;27;105026;-55
2021/03/02 05:31:30;;;;;;;7.88;5.35;;;;;;;;;;5026473;27;105993;-55
2021/03/02 05:33:56;;;;;;;7.43;4.82;;;;;;;;;;5027299;27;105070;-55
2021/03/02 05:36:21;;;;;;;8.38;5.53;;;;;;;;;;5027791;27;105768;-55
2021/03/02 05:38:47;;;;;;;7.78;5.18;;;;;;;;;;5028689;27;105795;-56
2021/03/02 05:41:12;;;;;;;8.68;5.68;;;;;;;;;;5028886;27;105032;-56
2021/03/02 05:43:41;;;;;;;8.25;5.32;;;;;;;;;;5026003;27;105095;-55
2021/03/02 05:46:08;;;;;;;9.63;5.50;;;;;;;;;;5023496;27;107533;-56
2021/03/02 05:48:33;;;;;;;8.98;5.75;;;;;;;;;;5027286;27;105808;-55
2021/03/02 05:50:59;;;;;;;8.02;5.72;;;;;;;;;;5012677;27;105734;-56
2021/03/02 05:53:24;;;;;;;8.40;5.72;;;;;;;;;;5030860;27;105736;-55
2021/03/02 05:55:50;;;;;;;9.05;5.57;;;;;;;;;;5024344;27;105630;-57
2021/03/02 05:58:15;;;;;;;8.10;5.35;;;;;;;;;;5025834;27;105835;-56
2021/03/02 06:00:41;;;;;;;7.75;5.10;;;;;;;;;;4995108;27;105623;-56
2021/03/02 06:03:07;;;;;;;7.50;4.78;;;;;;;;;;4981270;27;108686;-54
2021/03/02 06:05:36;;;;;;;8.75;5.47;;;;;;;;;;5025976;27;105775;-55
2021/03/02 06:08:02;;;;;;;9.45;5.90;;;;;;;;;;4999195;27;105026;-55
2021/03/02 06:10:28;;;;;;;8.02;5.03;;;;;;;;;;5030650;27;105366;-56
2021/03/02 06:12:55;;;;;;;8.20;5.28;;;;;;;;;;5028864;27;105272;-56
2021/03/02 06:15:21;;;;;;;8.35;5.32;;;;;;;;;;5028437;27;105995;-55
2021/03/02 06:17:47;;;;;;;7.88;5.13;;;;;;;;;;5029488;27;105474;-56
2021/03/02 06:20:22;;;;;;;8.27;5.32;;;;;;;;;;5014765;27;105463;-54
2021/03/02 06:22:47;;;;;;;8.18;5.05;;;;;;;;;;5026657;27;105053;-55
2021/03/02 06:25:29;;;;;;;8.45;5.60;;;;;;;;;;5026428;27;106272;-55
2021/03/02 06:27:55;;;;;;;7.90;4.68;;;;;;;;;;5025672;27;105703;-55
2021/03/02 06:30:20;;;;;;;7.70;4.85;;;;;;;;;;5029389;27;105717;-55
2021/03/02 06:32:52;;;;;;;7.25;4.68;;;;;;;;;;5026932;27;105226;-56
2021/03/02 06:35:34;;;;;;;7.68;5.00;;;;;;;;;;5029009;27;105058;-53
2021/03/02 06:37:59;;;;;;;;;;;;;;;;;;5015954;27;105114;-55
2021/03/02 06:40:48;;;;;;;7.82;4.93;;;;;;;;;;5023724;27;105378;-56
2021/03/02 06:43:36;;;;;;;7.85;4.95;;;;;;;;;;5027438;27;106043;-55
2021/03/02 06:46:09;;;;;;;7.82;4.65;;;;;;;;;;5026049;27;105052;-55
2021/03/02 06:48:53;;;;;;;7.38;4.80;;;;;;;;;;5028257;27;105339;-55
2021/03/02 06:51:25;;;;;;;7.30;4.57;;;;;;;;;;5030588;27;105784;-55
2021/03/02 06:54:25;;;;;;;8.38;5.00;;;;;;;;;;5027118;27;105410;-56
2021/03/02 06:57:00;;;;;;;8.15;4.78;;;;;;;;;;4991986;27;105618;-55
2021/03/02 06:59:26;;;;;;;8.30;5.35;;;;;;;;;;5024407;27;105566;-55
2021/03/02 07:01:52;;;;;;;8.00;4.72;;;;;;;;;;5025220;27;105559;-56
2021/03/02 07:04:27;;;;;;;7.72;4.85;;;;;;;;;;5028877;27;106075;-54
2021/03/02 07:06:57;;;;;;;7.00;4.53;;;;;;;;;;5027350;27;105789;-56
2021/03/02 07:09:24;;;;;;;6.97;4.70;;;;;;;;;;5027610;27;104992;-56
2021/03/02 07:11:49;;;;;;;6.47;4.25;;;;;;;;;;5027889;27;105941;-55
2021/03/02 07:14:15;;;;;;;8.10;4.93;;;;;;;;;;5028033;27;106510;-55
2021/03/02 07:16:42;;;;;;;6.72;4.18;;;;;;;;;;5025404;27;105560;-54
2021/03/02 07:19:08;;;;;;;7.65;4.70;;;;;;;;;;5024050;27;106006;-54
2021/03/02 07:21:39;;;;;;;7.13;4.57;;;;;;;;;;5024987;27;105438;-56
2021/03/02 07:24:12;;;;;;;7.65;4.85;;;;;;;;;;5032076;27;106236;-55
2021/03/02 07:26:37;;;;;;;6.68;4.20;;;;;;;;;;5027758;27;106038;-55
2021/03/02 07:29:03;;;;;;;6.80;4.00;;;;;;;;;;5027102;27;105070;-55
2021/03/02 07:31:31;;;;;;;7.13;4.10;;;;;;;;;;5028170;27;105249;-58
2021/03/02 07:33:59;;;;;;;7.07;4.22;;;;;;;;;;5019460;27;105438;-53
2021/03/02 07:36:24;;;;;;;7.55;4.68;;;;;;;;;;5012180;27;105843;-56
2021/03/02 07:39:18;;;;;;;7.43;4.47;;;;;;;;;;5026841;27;105764;-55
2021/03/02 07:41:47;;;;;;;6.97;3.90;;;;;;;;;;5028217;27;105139;-56
2021/03/02 07:44:13;;;;;;;7.25;4.32;;;;;;;;;;5026627;27;105065;-56
2021/03/02 07:46:39;;;;;;;7.25;4.13;;;;;;;;;;5025068;27;105810;-53
2021/03/02 07:49:23;;;;;;;6.80;4.18;;;;;;;;;;5028852;27;105097;-56
2021/03/02 07:52:00;;;;;;;6.45;3.95;;;;;;;;;;5027974;27;105894;-55
2021/03/02 07:54:29;;;;;;;6.13;3.90;;;;;;;;;;5025379;27;105062;-56
2021/03/02 07:57:13;;;;;;;6.70;4.13;;;;;;;;;;5030105;27;105623;-56
2021/03/02 07:59:38;;;;;;;7.07;4.30;;;;;;;;;;5030356;27;106004;-56
2021/03/02 08:02:17;;;;;;;6.63;4.22;;;;;;;;;;5026248;27;105485;-57
2021/03/02 08:04:44;;;;;;;7.57;4.50;;;;;;;;;;5027507;27;105016;-57
2021/03/02 08:07:22;;;;;;;7.55;4.50;;;;;;;;;;5012075;27;109352;-56
2021/03/02 08:09:48;;;;;;;8.48;4.32;;;;;;;;;;5028153;27;105294;-56
2021/03/02 08:12:34;;;;;;;7.95;4.80;;;;;;;;;;5026022;27;105090;-57
2021/03/02 08:15:09;;;;;;;8.23;4.75;;;;;;;;;;5025594;27;105080;-57
2021/03/02 08:17:35;;;;;;;6.50;4.00;;;;;;;;;;5027615;27;105806;-57
2021/03/02 08:20:05;;;;;;;7.25;4.07;;;;;;;;;;5027122;27;106178;-57
2021/03/02 08:22:33;;;;;;;7.10;4.30;;;;;;;;;;5029809;27;105431;-57
2021/03/02 08:25:05;;;;;;;7.00;4.22;;;;;;;;;;5027711;27;105116;-56
2021/03/02 08:27:56;;;;;;;7.68;4.50;;;;;;;;;;5008199;27;108383;-55
2021/03/02 08:30:47;;;;;;;6.60;4.10;;;;;;;;;;5026689;27;105089;-56
2021/03/02 08:33:18;;;;;;;5.70;3.75;;;;;;;;;;5025497;27;106095;-57
2021/03/02 08:35:44;;;;;;;7.53;4.20;;;;;;;;;;5026996;27;105247;-56
2021/03/02 08:38:11;;;;;;;6.55;4.00;;;;;;;;;;5028893;27;105429;-56
2021/03/02 08:40:36;;;;;;;5.85;3.92;;;;;;;;;;5035323;27;106317;-57
2021/03/02 08:43:10;;;;;;;6.90;4.32;;;;;;;;;;5027367;27;104973;-55
2021/03/02 08:45:37;;;;;;;7.75;4.45;;;;;;;;;;5030195;27;105384;-56
2021/03/02 08:48:14;;;;;;;5.90;3.67;;;;;;;;;;5028475;27;105751;-56
2021/03/02 08:50:39;;;;;;;6.20;3.55;;;;;;;;;;5029060;27;105483;-56
2021/03/02 08:53:24;;;;;;;8.43;4.47;;;;;;;;;;5027682;27;104963;-57
2021/03/02 08:55:49;;;;;;;7.38;4.40;;;;;;;;;;5028911;27;105049;-56
2021/03/02 08:58:15;;;;;;;6.20;3.70;;;;;;;;;;5013772;27;105110;-56
2021/03/02 09:00:40;;;;;;;6.00;3.60;;;;;;;;;;5030673;27;105012;-56
2021/03/02 09:03:06;;;;;;;5.10;3.20;;;;;;;;;;5026503;27;106530;-54
2021/03/02 09:05:31;;;;;;;6.22;3.65;;;;;;;;;;5034054;27;105565;-56
2021/03/02 09:08:06;;;;;;;6.15;3.97;;;;;;;;;;5029085;27;105696;-55
2021/03/02 09:10:32;;;;;;;6.32;3.80;;;;;;;;;;5029497;27;105466;-54
2021/03/02 09:12:58;;;;;;;5.93;3.38;;;;;;;;;;5012675;27;105346;-56
2021/03/02 09:15:36;;;;;;;6.50;3.90;;;;;;;;;;5028901;27;105855;-55
2021/03/02 09:18:15;;;;;;;6.22;3.53;;;;;;;;;;5014490;27;105482;-55
2021/03/02 09:20:50;;;;;;;6.60;3.45;;;;;;;;;;5028181;27;105757;-54
2021/03/02 09:23:16;;;;;;;5.75;3.53;;;;;;;;;;5027584;27;107604;-57
2021/03/02 09:25:42;;;;;;;5.57;3.35;;;;;;;;;;4997664;27;105484;-56
2021/03/02 09:28:17;;;;;;;6.00;3.75;;;;;;;;;;5031648;27;105660;-55
2021/03/02 09:30:43;;;;;;;6.22;3.40;;;;;;;;;;5029948;27;105496;-56
2021/03/02 09:33:12;;;;;;;6.43;3.80;;;;;;;;;;5027338;27;105552;-55
2021/03/02 09:35:38;;;;;;;5.28;3.38;;;;;;;;;;5028517;27;105820;-55
2021/03/02 09:38:03;;;;;;;4.72;3.38;;;;;;;;;;5029630;27;105046;-60
2021/03/02 09:40:42;;;;;;;6.47;3.40;;;;;;;;;;5032687;27;105876;-56
2021/03/02 09:43:07;;;;;;;5.25;3.38;;;;;;;;;;4988383;27;108385;-58
2021/03/02 09:45:33;;;;;;;5.28;3.30;;;;;;;;;;5029311;27;105743;-57
2021/03/02 09:48:01;;;;;;;5.72;3.40;;;;;;;;;;5029750;27;106947;-57
2021/03/02 09:50:34;;;;;;;5.95;3.53;;;;;;;;;;5031684;27;106146;-58
2021/03/02 09:52:59;;;;;;;5.80;3.30;;;;;;;;;;5028515;27;106368;-58
2021/03/02 09:55:26;;;;;;;6.55;3.50;;;;;;;;;;5029654;27;105864;-55
2021/03/02 10:00:54;;;;;;;5.63;3.20;;;;;;;;;;5029058;27;105932;-58
2021/03/02 10:03:22;;;;;;;5.03;2.97;;;;;;;;;;5027507;27;105935;-58
2021/03/02 10:06:01;;;;;;;7.55;3.85;;;;;;;;;;5029192;27;105335;-55
2021/03/02 10:08:27;;;;;;;5.07;3.10;;;;;;;;;;5028194;27;106286;-58
2021/03/02 10:11:13;;;;;;;5.05;3.08;;;;;;;;;;5027228;27;105060;-57
2021/03/02 10:13:45;;;;;;;5.88;3.40;;;;;;;;;;5026079;27;105250;-57
2021/03/02 10:16:12;;;;;;;6.07;3.50;;;;;;;;;;5028128;27;105087;-57
2021/03/02 10:18:48;;;;;;;5.10;3.25;;;;;;;;;;5029009;27;105077;-57
2021/03/02 10:21:13;;;;;;;5.18;3.40;;;;;;;;;;5028419;27;106396;-57
2021/03/02 10:23:46;;;;;;;5.07;3.25;;;;;;;;;;5027122;27;105292;-57
2021/03/02 10:26:12;;;;;;;5.55;3.28;;;;;;;;;;5003414;27;105104;-57
2021/03/02 10:28:37;;;;;;;5.25;3.10;;;;;;;;;;5028823;27;105521;-57
2021/03/02 10:31:03;;;;;;;5.47;3.10;;;;;;;;;;5028344;27;106331;-58
2021/03/02 10:33:28;;;;;;;6.47;3.85;;;;;;;;;;5013721;27;105101;-56
2021/03/02 10:35:54;;;;;;;5.95;3.22;;;;;;;;;;5032294;27;105020;-57
2021/03/02 10:38:19;;;;;;;6.40;3.67;;;;;;;;;;5014867;27;105169;-57
2021/03/02 10:40:45;;;;;;;5.82;3.25;;;;;;;;;;5029082;27;104964;-56
2021/03/02 10:43:10;;;;;;;5.38;3.55;;;;;;;;;;5029215;27;105263;-58
2021/03/02 10:45:36;;;;;;;5.93;3.45;;;;;;;;;;5029622;27;105017;-57
2021/03/02 10:48:02;;;;;;;6.65;3.63;;;;;;;;;;5027981;27;105062;-56
2021/03/02 10:50:28;;;;;;;5.88;3.67;;;;;;;;;;5026956;27;105664;-56
2021/03/02 10:52:55;;;;;;;5.88;3.72;;;;;;;;;;5029509;27;105102;-58
2021/03/02 10:55:21;;;;;;;5.78;3.60;;;;;;;;;;5028575;27;105910;-57
2021/03/02 10:58:18;;;;;;;6.57;3.80;;;;;;;;;;5032559;27;105169;-58
2021/03/02 11:00:43;;;;;;;6.75;3.88;;;;;;;;;;5027846;27;105042;-57
2021/03/02 11:03:09;;;;;;;6.93;4.13;;;;;;;;;;5028043;27;105686;-56
2021/03/02 11:05:35;;;;;;;7.20;4.22;;;;;;;;;;5028601;27;105050;-58
2021/03/02 11:08:00;;;;;;;7.00;3.83;;;;;;;;;;5030855;27;105712;-57
2021/03/02 11:10:26;;;;;;;5.90;3.83;;;;;;;;;;5027425;27;106867;-58
2021/03/02 11:12:51;;;;;;;6.30;3.90;;;;;;;;;;5029193;27;105433;-58
2021/03/02 11:15:17;;;;;;;6.15;3.70;;;;;;;;;;5026452;27;105818;-57
2021/03/02 11:17:42;;;;;;;6.70;3.70;;;;;;;;;;5032305;27;105720;-57
2021/03/02 11:20:08;;;;;;;6.10;3.60;;;;;;;;;;5026696;27;105216;-57
2021/03/02 11:22:33;;;;;;;5.75;3.35;;;;;;;;;;5030820;27;108376;-57
2021/03/02 11:24:59;;;;;;;5.75;3.47;;;;;;;;;;5027635;27;105006;-55
2021/03/02 11:27:24;;;;;;;6.15;3.10;;;;;;;;;;5024830;27;106069;-57
2021/03/02 11:29:50;;;;;;;4.65;2.63;;;;;;;;;;5029609;27;108990;-58
2021/03/02 11:32:15;;;;;;;4.30;2.80;;;;;;;;;;5027572;27;105357;-55
2021/03/02 11:34:41;;;;;;;5.38;2.72;;;;;;;;;;5028673;27;105849;-58
2021/03/02 11:37:07;;;;;;;3.25;1.95;;;;;;;;;;5026559;27;105648;-57
2021/03/02 11:39:32;;;;;;;3.53;2.05;;;;;;;;;;5028368;27;105142;-58
2021/03/02 11:41:58;;;;;;;4.50;2.60;;;;;;;;;;5027226;27;105816;-57
2021/03/02 11:44:23;;;;;;;4.57;2.80;;;;;;;;;;5024680;27;105002;-57
2021/03/02 11:46:48;;;;;;;4.28;2.80;;;;;;;;;;5027344;27;105109;-57
2021/03/02 11:49:14;;;;;;;5.15;2.80;;;;;;;;;;5027703;27;106042;-58
2021/03/02 11:51:40;;;;;;;5.65;3.13;;;;;;;;;;5027881;27;105390;-57
2021/03/02 11:54:05;;;;;;;4.63;2.80;;;;;;;;;;5008408;27;105522;-57
2021/03/02 11:56:30;;;;;;;3.78;2.60;;;;;;;;;;5034302;27;110719;-57
2021/03/02 11:58:56;;;;;;;6.25;3.35;;;;;;;;;;5029748;27;105141;-58
2021/03/02 12:01:22;;;;;;;5.03;3.10;;;;;;;;;;5026269;27;105704;-57
2021/03/02 12:03:47;;;;;;;6.05;3.20;;;;;;;;;;5028673;27;106072;-57
2021/03/02 12:06:12;;;;;;;5.90;3.17;;;;;;;;;;5024005;27;106030;-58
2021/03/02 12:08:38;;;;;;;4.80;3.05;;;;;;;;;;5026609;27;106424;-57
2021/03/02 12:11:04;;;;;;;5.47;3.20;;;;;;;;;;5026750;27;105373;-57
2021/03/02 12:13:29;;;;;;;5.28;3.28;;;;;;;;;;5027995;27;105854;-58
2021/03/02 12:15:55;;;;;;;5.28;3.13;;;;;;;;;;5026517;27;106619;-58
2021/03/02 12:18:21;;;;;;;6.93;3.60;;;;;;;;;;5028016;27;105136;-58
2021/03/02 12:20:47;;;;;;;6.93;3.40;;;;;;;;;;5025070;27;105276;-55
2021/03/02 12:23:12;;;;;;;5.53;3.08;;;;;;;;;;5027600;27;105237;-57
2021/03/02 12:25:38;;;;;;;5.53;3.42;;;;;;;;;;5027497;27;106061;-57
2021/03/02 12:28:03;;;;;;;5.05;3.00;;;;;;;;;;5028010;27;107327;-56
2021/03/02 12:30:29;;;;;;;6.00;3.58;;;;;;;;;;5029121;27;104970;-57
2021/03/02 12:32:54;;;;;;;5.78;3.33;;;;;;;;;;5012070;27;106046;-58
2021/03/02 12:35:20;;;;;;;5.03;2.97;;;;;;;;;;5027849;27;105123;-57
2021/03/02 12:37:45;;;;;;;6.43;3.45;;;;;;;;;;5025147;27;105430;-58
2021/03/02 12:40:11;;;;;;;5.32;2.90;;;;;;;;;;4996869;27;106246;-60
2021/03/02 12:42:37;;;;;;;6.75;2.90;;;;;;;;;;5017673;27;107413;-58
2021/03/02 12:45:03;;;;;;;5.57;3.45;;;;;;;;;;5030286;27;104976;-59
2021/03/02 12:47:28;;;;;;;5.00;2.80;;;;;;;;;;5021428;27;105861;-56
2021/03/02 12:49:54;;;;;;;6.15;3.08;;;;;;;;;;5026352;27;105062;-56
2021/03/02 12:52:21;;;;;;;6.50;3.40;;;;;;;;;;5025471;27;106099;-56
2021/03/02 12:54:46;;;;;;;6.20;3.17;;;;;;;;;;5008398;27;108487;-56
2021/03/02 12:57:12;;;;;;;4.95;3.20;;;;;;;;;;5010038;27;105584;-57
2021/03/02 12:59:37;;;;;;;5.10;2.97;;;;;;;;;;5027141;27;105803;-56
2021/03/02 13:02:04;;;;;;;4.55;2.92;;;;;;;;;;5024028;27;105450;-57
2021/03/02 13:04:30;;;;;;;6.28;3.30;;;;;;;;;;4998082;27;105088;-56
2021/03/02 13:06:56;;;;;;;5.35;3.40;;;;;;;;;;5024183;27;105855;-58
2021/03/02 13:09:21;;;;;;;4.88;2.70;;;;;;;;;;5025172;27;105071;-62
2021/03/02 13:11:47;;;;;;;5.80;3.22;;;;;;;;;;5024076;27;105390;-56
2021/03/02 13:14:12;;;;;;;5.82;3.03;;;;;;;;;;5023496;27;105951;-57
2021/03/02 13:16:38;;;;;;;4.95;3.08;;;;;;;;;;5025429;27;105258;-57
2021/03/02 13:19:08;;;;;;;5.85;3.17;;;;;;;;;;5025011;27;105733;-57
2021/03/02 13:21:34;;;;;;;4.22;2.90;;;;;;;;;;5023766;27;106140;-56
2021/03/02 13:24:00;;;;;;;4.60;2.85;;;;;;;;;;5021563;27;105836;-58
2021/03/02 13:26:26;;;;;;;5.15;3.17;;;;;;;;;;5023901;27;105643;-56
2021/03/02 13:28:52;;;;;;;5.15;2.97;;;;;;;;;;5023569;27;105446;-56
2021/03/02 13:31:17;;;;;;;5.00;2.90;;;;;;;;;;5024661;27;106127;-57
2021/03/02 13:33:43;;;;;;;4.10;2.58;;;;;;;;;;5024023;27;105720;-56
2021/03/02 13:36:12;;;;;;;4.43;2.83;;;;;;;;;;5024201;27;105113;-56
2021/03/02 13:38:38;;;;;;;4.65;2.80;;;;;;;;;;5024135;27;105645;-57
2021/03/02 13:41:07;;;;;;;3.13;2.55;;;;;;;;;;5024213;27;105500;-57
2021/03/02 13:43:32;;;;;;;4.18;2.42;;;;;;;;;;5029148;27;105851;-57
2021/03/02 13:45:58;;;;;;;4.85;2.55;;;;;;;;;;5028178;27;105770;-57
2021/03/02 13:48:23;;;;;;;4.32;2.95;;;;;;;;;;5033273;27;113090;-56
2021/03/02 13:50:52;;;;;;;3.85;2.53;;;;;;;;;;5026221;27;105836;-57
2021/03/02 13:53:18;;;;;;;4.72;2.72;;;;;;;;;;5025751;27;105106;-56
2021/03/02 13:55:47;;;;;;;3.40;2.28;;;;;;;;;;5028649;27;105254;-57
2021/03/02 13:58:12;;;;;;;4.07;2.70;;;;;;;;;;5026552;27;105088;-58
2021/03/02 14:00:38;;;;;;;4.65;2.70;;;;;;;;;;5029711;27;106166;-57
2021/03/02 14:03:03;;;;;;;4.57;2.92;;;;;;;;;;5027415;27;105277;-56
2021/03/02 14:05:30;;;;;;;4.72;2.78;;;;;;;;;;5025088;27;105886;-57
2021/03/02 14:08:00;;;;;;;3.53;2.55;;;;;;;;;;5030914;27;106817;-57
2021/03/02 14:10:27;;;;;;;4.38;2.60;;;;;;;;;;5001795;27;105091;-54
2021/03/02 14:12:54;;;;;;;5.43;2.75;;;;;;;;;;5028706;27;105719;-56
2021/03/02 14:15:20;;;;;;;4.47;2.40;;;;;;;;;;5025177;27;105574;-57
2021/03/02 14:17:47;;;;;;;4.60;2.60;;;;;;;;;;5029382;27;105572;-56
2021/03/02 14:20:13;;;;;;;3.90;2.53;;;;;;;;;;5027509;27;105071;-57
2021/03/02 14:22:38;;;;;;;3.42;2.38;;;;;;;;;;5030875;27;105184;-57
2021/03/02 14:25:04;;;;;;;4.57;2.20;;;;;;;;;;5008924;27;105197;-57
2021/03/02 14:27:30;;;;;;;3.65;2.33;;;;;;;;;;5026976;27;106809;-57
2021/03/02 14:29:56;;;;;;;4.65;2.55;;;;;;;;;;5025540;27;105059;-57
2021/03/02 14:32:21;;;;;;;4.22;2.40;;;;;;;;;;5033001;27;105178;-57
2021/03/02 14:34:47;;;;;;;4.10;2.40;;;;;;;;;;5028514;27;105104;-56
2021/03/02 14:37:12;;;;;;;4.30;2.42;;;;;;;;;;5026879;27;105072;-57